Time;durP1;ratioP1;P1;durP2;ratioP2;P2;SDS_P1;SDS_P2;PMS_P1;PMS_P2;Temp;Humidity;BMP_temperature;BMP_pressure;BME280_temperature;BME280_humidity;BME280_pressure;Samples;Min_cycle;Max_cycle;Signal;HPM_P1;HPM_P2
2022/11/27 00:01:16;;;;;;;19.58;6.60;;;6.90;99.90;;;;;;5032592;28;20140;-61
2022/11/27 00:03:42;;;;;;;17.80;6.25;;;6.90;99.90;;;;;;5029576;28;20476;-61
2022/11/27 00:06:17;;;;;;;14.30;5.70;;;6.90;99.90;;;;;;5032212;28;20038;-61
2022/11/27 00:08:43;;;;;;;20.08;6.65;;;6.90;99.90;;;;;;5029251;28;20048;-61
2022/11/27 00:11:13;;;;;;;14.77;5.85;;;6.90;99.90;;;;;;5026053;28;20037;-62
2022/11/27 00:13:39;;;;;;;20.83;6.53;;;6.80;99.90;;;;;;5027985;28;20124;-61
2022/11/27 00:16:05;;;;;;;17.52;6.43;;;6.80;99.90;;;;;;5031499;28;20505;-61
2022/11/27 00:18:32;;;;;;;20.50;6.30;;;6.80;99.90;;;;;;5030748;28;20141;-61
2022/11/27 00:21:05;;;;;;;15.18;6.20;;;6.80;99.90;;;;;;5030979;28;20038;-61
2022/11/27 00:23:33;;;;;;;19.75;6.68;;;6.80;99.90;;;;;;5028455;28;20168;-61
2022/11/27 00:25:58;;;;;;;19.40;6.40;;;6.80;99.90;;;;;;5029027;28;20557;-61
2022/11/27 00:28:24;;;;;;;16.70;5.88;;;6.80;99.90;;;;;;5030025;28;20041;-61
2022/11/27 00:30:50;;;;;;;16.83;5.97;;;6.70;99.90;;;;;;5032265;28;20080;-60
2022/11/27 00:33:15;;;;;;;12.32;6.28;;;6.70;99.90;;;;;;5029530;28;20373;-59
2022/11/27 00:35:41;;;;;;;17.92;6.47;;;6.70;99.90;;;;;;5031539;28;20037;-61
2022/11/27 00:38:07;;;;;;;15.38;6.38;;;6.60;99.90;;;;;;5026629;28;20152;-59
2022/11/27 00:40:34;;;;;;;15.68;5.57;;;6.60;99.90;;;;;;5026152;28;20105;-61
2022/11/27 00:43:00;;;;;;;13.18;6.07;;;6.50;99.90;;;;;;5030564;28;20498;-61
2022/11/27 00:45:26;;;;;;;17.15;6.03;;;6.60;99.90;;;;;;5025942;28;20099;-61
2022/11/27 00:47:52;;;;;;;17.10;6.45;;;6.50;99.90;;;;;;5031460;28;20722;-61
2022/11/27 00:50:17;;;;;;;17.13;6.03;;;6.50;99.90;;;;;;5026742;28;20064;-60
2022/11/27 00:52:43;;;;;;;16.35;6.60;;;6.50;99.90;;;;;;5028881;28;20037;-60
2022/11/27 00:55:09;;;;;;;17.00;5.90;;;6.50;99.90;;;;;;5045366;28;20140;-61
2022/11/27 00:57:34;;;;;;;16.77;6.28;;;6.50;99.90;;;;;;5043103;28;20480;-61
2022/11/27 01:00:00;;;;;;;17.73;6.13;;;6.50;99.90;;;;;;5030696;28;20037;-60
2022/11/27 01:02:26;;;;;;;17.00;5.82;;;6.40;99.90;;;;;;5031095;28;20125;-60
2022/11/27 01:04:51;;;;;;;11.20;6.00;;;6.40;99.90;;;;;;5024935;28;20037;-61
2022/11/27 01:07:17;;;;;;;17.48;6.47;;;6.40;99.90;;;;;;5024848;28;20518;-60
2022/11/27 01:09:42;;;;;;;19.52;6.20;;;6.40;99.90;;;;;;5028317;28;20037;-61
2022/11/27 01:12:08;;;;;;;20.38;6.38;;;6.40;99.90;;;;;;5027327;28;20029;-60
2022/11/27 01:14:34;;;;;;;13.23;6.00;;;6.30;99.90;;;;;;5026234;28;20113;-60
2022/11/27 01:17:00;;;;;;;16.48;5.70;;;6.30;99.90;;;;;;5026972;28;20029;-61
2022/11/27 01:19:25;;;;;;;18.70;5.85;;;6.20;99.90;;;;;;5028709;28;20029;-61
2022/11/27 01:21:51;;;;;;;16.85;6.20;;;6.20;99.90;;;;;;5028089;28;20099;-60
2022/11/27 01:24:17;;;;;;;18.45;6.30;;;6.10;99.90;;;;;;5028559;28;20041;-61
2022/11/27 01:26:43;;;;;;;13.88;6.32;;;6.10;99.90;;;;;;5030739;28;20048;-61
2022/11/27 01:29:09;;;;;;;15.15;5.90;;;6.00;99.90;;;;;;5028322;28;20048;-59
2022/11/27 01:31:36;;;;;;;15.85;6.10;;;6.00;99.90;;;;;;5028403;28;20079;-60
2022/11/27 01:34:07;;;;;;;18.75;6.40;;;5.90;99.90;;;;;;5025138;28;20046;-61
2022/11/27 01:36:34;;;;;;;14.00;6.40;;;5.90;99.90;;;;;;5025747;28;20087;-60
2022/11/27 01:39:00;;;;;;;15.60;6.07;;;5.80;99.90;;;;;;5028726;28;20044;-61
2022/11/27 01:41:32;;;;;;;15.88;6.00;;;5.90;99.90;;;;;;5025424;28;20061;-60
2022/11/27 01:44:21;;;;;;;15.27;6.85;;;5.90;99.90;;;;;;5027791;28;20049;-62
2022/11/27 01:47:08;;;;;;;16.10;6.63;;;5.80;99.90;;;;;;5029489;28;20204;-61
2022/11/27 01:49:55;;;;;;;14.68;6.90;;;5.90;99.90;;;;;;5029249;28;20491;-60
2022/11/27 01:52:23;;;;;;;13.52;5.88;;;5.80;99.90;;;;;;5043454;28;20514;-60
2022/11/27 01:54:57;;;;;;;14.52;6.82;;;5.80;99.90;;;;;;5040032;28;20522;-60
2022/11/27 01:57:46;;;;;;;14.13;6.63;;;5.80;99.90;;;;;;5022405;28;20487;-61
2022/11/27 02:00:14;;;;;;;17.60;6.28;;;5.80;99.90;;;;;;5027460;28;20065;-60
2022/11/27 02:02:41;;;;;;;16.08;6.28;;;5.80;99.90;;;;;;5023458;28;20752;-60
2022/11/27 02:05:08;;;;;;;13.73;6.20;;;5.80;99.90;;;;;;5020709;28;20504;-61
2022/11/27 02:07:34;;;;;;;16.92;6.43;;;5.70;99.90;;;;;;5026291;28;20403;-61
2022/11/27 02:09:59;;;;;;;16.95;6.47;;;5.70;99.90;;;;;;5021787;28;20041;-61
2022/11/27 02:12:28;;;;;;;14.45;6.18;;;5.70;99.90;;;;;;5030293;28;20560;-62
2022/11/27 02:15:25;;;;;;;13.57;6.38;;;5.60;99.90;;;;;;5024943;28;20044;-59
2022/11/27 02:18:20;;;;;;;12.60;6.18;;;5.60;99.90;;;;;;5028000;28;20084;-60
2022/11/27 02:21:10;;;;;;;15.32;6.40;;;5.60;99.90;;;;;;5028158;28;20033;-60
2022/11/27 02:23:52;;;;;;;15.95;6.35;;;5.60;99.90;;;;;;5027670;28;20124;-61
2022/11/27 02:26:39;;;;;;;19.50;6.45;;;5.60;99.90;;;;;;5029256;28;20137;-61
2022/11/27 02:29:10;;;;;;;15.13;6.40;;;5.50;99.90;;;;;;5026412;28;20500;-61
2022/11/27 02:31:50;;;;;;;15.73;6.40;;;5.50;99.90;;;;;;5029051;28;20041;-60
2022/11/27 02:34:35;;;;;;;17.90;6.40;;;5.50;99.90;;;;;;5024749;28;20128;-61
2022/11/27 02:37:09;;;;;;;21.73;6.38;;;5.50;99.90;;;;;;5030237;28;20042;-61
2022/11/27 02:39:44;;;;;;;13.18;5.75;;;5.50;99.90;;;;;;5026331;28;20069;-61
2022/11/27 02:42:18;;;;;;;14.57;6.38;;;5.50;99.90;;;;;;5028776;28;20048;-60
2022/11/27 02:44:51;;;;;;;18.40;6.88;;;5.50;99.90;;;;;;5027423;28;20496;-60
2022/11/27 02:47:18;;;;;;;17.73;5.75;;;5.50;99.90;;;;;;5024827;28;20052;-61
2022/11/27 02:49:46;;;;;;;13.07;5.65;;;5.40;99.90;;;;;;5028203;28;20140;-61
2022/11/27 02:52:13;;;;;;;18.25;6.00;;;5.40;99.90;;;;;;5028910;28;20211;-61
2022/11/27 02:54:40;;;;;;;19.08;6.50;;;5.40;99.90;;;;;;5025542;28;20038;-61
2022/11/27 02:57:09;;;;;;;13.48;6.28;;;5.40;99.90;;;;;;5025174;28;20060;-61
2022/11/27 02:59:36;;;;;;;15.88;5.47;;;5.40;99.90;;;;;;5025100;28;20523;-61
2022/11/27 03:02:08;;;;;;;10.77;5.00;;;5.40;99.90;;;;;;5024577;28;20045;-61
2022/11/27 03:04:42;;;;;;;14.07;5.82;;;5.40;99.90;;;;;;5023827;28;20120;-59
2022/11/27 03:07:15;;;;;;;15.27;6.50;;;5.40;99.90;;;;;;5009676;28;20041;-61
2022/11/27 03:09:50;;;;;;;15.82;6.22;;;5.40;99.90;;;;;;5026533;28;20512;-61
2022/11/27 03:12:17;;;;;;;12.32;5.53;;;5.40;99.90;;;;;;5028667;28;20103;-61
2022/11/27 03:14:44;;;;;;;15.30;5.32;;;5.30;99.90;;;;;;5028504;28;20126;-61
2022/11/27 03:17:21;;;;;;;12.98;6.35;;;5.30;99.90;;;;;;5027145;28;20037;-61
2022/11/27 03:19:55;;;;;;;13.40;5.68;;;5.40;99.90;;;;;;5030112;28;20052;-61
2022/11/27 03:22:21;;;;;;;17.23;5.78;;;5.40;99.90;;;;;;5030684;28;20041;-60
2022/11/27 03:24:48;;;;;;;17.85;5.85;;;5.40;99.90;;;;;;5031438;28;20522;-60
2022/11/27 03:27:20;;;;;;;16.50;6.13;;;5.30;99.90;;;;;;5032224;28;20045;-60
2022/11/27 03:29:56;;;;;;;12.95;5.90;;;5.30;99.90;;;;;;5030964;28;20380;-60
2022/11/27 03:32:22;;;;;;;15.23;5.25;;;5.30;99.90;;;;;;5030604;28;20033;-61
2022/11/27 03:34:48;;;;;;;15.68;5.10;;;5.30;99.90;;;;;;5029135;28;20052;-61
2022/11/27 03:37:14;;;;;;;12.65;5.40;;;5.30;99.90;;;;;;5030161;28;20037;-60
2022/11/27 03:39:40;;;;;;;12.32;5.10;;;5.30;99.90;;;;;;5027704;28;20124;-60
2022/11/27 03:42:37;;;;;;;15.65;5.53;;;5.30;99.90;;;;;;5032869;28;20037;-60
2022/11/27 03:45:18;;;;;;;13.68;5.63;;;5.30;99.90;;;;;;5029202;28;20052;-60
2022/11/27 03:48:28;;;;;;;15.48;5.32;;;5.30;99.90;;;;;;5032461;28;20128;-60
2022/11/27 03:51:14;;;;;;;11.75;4.95;;;5.30;99.90;;;;;;5015089;28;20046;-61
2022/11/27 03:53:45;;;;;;;14.38;5.47;;;5.30;99.90;;;;;;4990736;28;20052;-60
2022/11/27 03:56:51;;;;;;;13.88;4.90;;;5.30;99.90;;;;;;5016408;28;20072;-60
2022/11/27 03:59:31;;;;;;;15.52;5.13;;;5.30;99.90;;;;;;5029918;28;20037;-61
2022/11/27 04:01:57;;;;;;;8.52;4.57;;;5.30;99.90;;;;;;5025203;28;20123;-60
2022/11/27 04:04:23;;;;;;;14.02;5.03;;;5.30;99.90;;;;;;5045653;28;20117;-61
2022/11/27 04:06:48;;;;;;;16.35;5.82;;;5.30;99.90;;;;;;5030932;28;20428;-60
2022/11/27 04:09:14;;;;;;;10.85;5.28;;;5.30;99.90;;;;;;5030760;28;20041;-61
2022/11/27 04:11:39;;;;;;;11.50;4.95;;;5.40;99.90;;;;;;5027789;28;20038;-60
2022/11/27 04:14:05;;;;;;;15.52;5.10;;;5.40;99.90;;;;;;5025456;28;20069;-60
2022/11/27 04:16:31;;;;;;;15.60;5.15;;;5.40;99.90;;;;;;5047325;22;20098;-61
2022/11/27 04:18:56;;;;;;;18.95;5.13;;;5.40;99.90;;;;;;5052564;28;20041;-61
2022/11/27 04:21:22;;;;;;;16.55;5.22;;;5.40;99.90;;;;;;5051460;28;20045;-61
2022/11/27 04:23:47;;;;;;;13.30;5.88;;;5.40;99.90;;;;;;5053096;28;20396;-61
2022/11/27 04:26:13;;;;;;;15.88;4.72;;;5.50;99.90;;;;;;5052814;28;20171;-61
2022/11/27 04:28:39;;;;;;;12.15;5.18;;;5.40;99.90;;;;;;5052908;28;20037;-61
2022/11/27 04:31:05;;;;;;;12.98;5.38;;;5.50;99.90;;;;;;5052226;28;20917;-61
2022/11/27 04:33:30;;;;;;;14.60;5.57;;;5.50;99.90;;;;;;5044544;28;20037;-61
2022/11/27 04:35:56;;;;;;;15.52;5.53;;;5.50;99.90;;;;;;5051823;28;20037;-60
2022/11/27 04:38:22;;;;;;;13.23;5.03;;;5.50;99.90;;;;;;5053423;28;20037;-61
2022/11/27 04:40:49;;;;;;;12.38;5.10;;;5.50;99.90;;;;;;5037683;28;20042;-61
2022/11/27 04:43:15;;;;;;;10.27;4.72;;;5.50;99.90;;;;;;5037987;28;20418;-61
2022/11/27 04:45:42;;;;;;;17.08;5.20;;;5.50;99.90;;;;;;5051335;28;20108;-61
2022/11/27 04:48:08;;;;;;;13.32;4.60;;;5.50;99.90;;;;;;5047443;28;20692;-61
2022/11/27 04:50:33;;;;;;;13.32;5.03;;;5.50;99.90;;;;;;5050727;28;20041;-61
2022/11/27 04:52:59;;;;;;;11.63;5.00;;;5.50;99.90;;;;;;5052611;28;20407;-61
2022/11/27 04:55:25;;;;;;;11.52;4.75;;;5.50;99.90;;;;;;5051989;28;20048;-60
2022/11/27 04:57:50;;;;;;;12.38;4.78;;;5.50;99.90;;;;;;5052006;28;20033;-61
2022/11/27 05:00:16;;;;;;;15.60;5.18;;;5.50;99.90;;;;;;5051663;28;20223;-62
2022/11/27 05:02:42;;;;;;;12.95;5.07;;;5.50;99.90;;;;;;5052392;28;20044;-62
2022/11/27 05:05:08;;;;;;;11.27;4.65;;;5.50;99.90;;;;;;5045893;28;20943;-61
2022/11/27 05:07:33;;;;;;;11.48;4.80;;;5.50;99.90;;;;;;5049298;28;20705;-61
2022/11/27 05:09:59;;;;;;;12.48;4.53;;;5.50;99.90;;;;;;5051988;28;20119;-61
2022/11/27 05:12:24;;;;;;;15.90;5.00;;;5.50;99.90;;;;;;5051892;28;20124;-61
2022/11/27 05:14:50;;;;;;;15.27;4.82;;;5.50;99.90;;;;;;5052100;28;20069;-61
2022/11/27 05:17:16;;;;;;;12.77;5.03;;;5.40;99.90;;;;;;5051111;28;20033;-62
2022/11/27 05:19:41;;;;;;;11.07;5.03;;;5.40;99.90;;;;;;5051959;28;20041;-61
2022/11/27 05:22:07;;;;;;;11.85;4.80;;;5.40;99.90;;;;;;5033943;28;20025;-62
2022/11/27 05:24:33;;;;;;;10.93;4.60;;;5.40;99.90;;;;;;5049573;28;20040;-61
2022/11/27 05:26:58;;;;;;;15.35;5.15;;;5.40;99.90;;;;;;5051532;28;20052;-61
2022/11/27 05:29:25;;;;;;;12.93;4.47;;;5.40;99.90;;;;;;5051793;28;20045;-61
2022/11/27 05:31:50;;;;;;;14.00;4.85;;;5.50;99.90;;;;;;5051936;28;20398;-61
2022/11/27 05:34:16;;;;;;;13.35;4.70;;;5.40;99.90;;;;;;5051519;28;20028;-61
2022/11/27 05:36:42;;;;;;;10.90;4.70;;;5.40;99.90;;;;;;5049914;28;20119;-61
2022/11/27 05:39:08;;;;;;;16.33;4.80;;;5.40;99.90;;;;;;5051704;28;20037;-61
2022/11/27 05:41:36;;;;;;;12.27;4.57;;;5.40;99.90;;;;;;5050470;28;20041;-62
2022/11/27 05:44:02;;;;;;;17.92;5.03;;;5.40;99.90;;;;;;5052304;28;20037;-62
2022/11/27 05:46:28;;;;;;;14.63;4.45;;;5.40;99.90;;;;;;5050985;28;20045;-61
2022/11/27 05:48:54;;;;;;;16.63;4.93;;;5.40;99.90;;;;;;5042865;28;20037;-62
2022/11/27 05:51:20;;;;;;;10.60;4.80;;;5.40;99.90;;;;;;5047088;28;20048;-61
2022/11/27 05:53:45;;;;;;;9.93;4.40;;;5.40;99.90;;;;;;5051784;28;20041;-62
2022/11/27 05:56:13;;;;;;;8.95;4.30;;;5.40;99.90;;;;;;5051406;28;20086;-62
2022/11/27 05:58:40;;;;;;;10.15;4.75;;;5.40;99.90;;;;;;5050422;28;20045;-62
2022/11/27 06:01:07;;;;;;;15.93;5.05;;;5.40;99.90;;;;;;5050232;28;20082;-62
2022/11/27 06:03:33;;;;;;;9.38;4.00;;;5.40;99.90;;;;;;5049757;28;20102;-62
2022/11/27 06:06:05;;;;;;;11.73;4.68;;;5.40;99.90;;;;;;5051023;28;20067;-62
2022/11/27 06:08:31;;;;;;;12.18;4.78;;;5.40;99.90;;;;;;5051092;28;20041;-62
2022/11/27 06:10:56;;;;;;;10.18;4.65;;;5.40;99.90;;;;;;5050957;28;20490;-62
2022/11/27 06:13:22;;;;;;;8.88;4.35;;;5.40;99.90;;;;;;5051312;28;20036;-62
2022/11/27 06:15:47;;;;;;;8.98;3.72;;;5.40;99.90;;;;;;5049206;28;20049;-62
2022/11/27 06:18:13;;;;;;;12.10;4.10;;;5.40;99.90;;;;;;5050231;28;20450;-61
2022/11/27 06:20:39;;;;;;;9.93;4.78;;;5.40;99.90;;;;;;5051319;28;20041;-62
2022/11/27 06:23:04;;;;;;;14.38;4.28;;;5.40;99.90;;;;;;5050712;28;20076;-61
2022/11/27 06:25:30;;;;;;;8.82;4.47;;;5.40;99.90;;;;;;5050196;28;20052;-61
2022/11/27 06:27:55;;;;;;;10.60;4.72;;;5.40;99.90;;;;;;5050477;28;20094;-61
2022/11/27 06:30:21;;;;;;;12.98;5.10;;;5.40;99.90;;;;;;5051124;28;20478;-62
2022/11/27 06:32:46;;;;;;;12.50;4.30;;;5.50;99.90;;;;;;5049570;28;20041;-61
2022/11/27 06:35:12;;;;;;;11.68;4.72;;;5.50;99.90;;;;;;5049007;28;20045;-62
2022/11/27 06:37:38;;;;;;;8.13;4.38;;;5.50;99.90;;;;;;5050345;28;20040;-62
2022/11/27 06:40:04;;;;;;;14.48;5.28;;;5.40;99.90;;;;;;5032867;28;20268;-61
2022/11/27 06:42:30;;;;;;;10.93;4.15;;;5.40;99.90;;;;;;5049767;28;20203;-61
2022/11/27 06:44:56;;;;;;;9.80;4.45;;;5.50;99.90;;;;;;5050273;28;20120;-62
2022/11/27 06:47:22;;;;;;;11.02;4.85;;;5.50;99.90;;;;;;5042328;28;20095;-61
2022/11/27 06:49:47;;;;;;;8.75;4.68;;;5.50;99.90;;;;;;5051530;28;20040;-61
2022/11/27 06:52:13;;;;;;;8.80;4.63;;;5.50;99.90;;;;;;5046149;28;20106;-62
2022/11/27 06:54:39;;;;;;;11.95;4.60;;;5.50;99.90;;;;;;5048680;28;20048;-62
2022/11/27 06:57:04;;;;;;;9.50;4.78;;;5.50;99.90;;;;;;5053418;28;20746;-61
2022/11/27 06:59:30;;;;;;;11.13;4.85;;;5.50;99.90;;;;;;5054774;28;20037;-61
2022/11/27 07:01:55;;;;;;;13.52;5.32;;;5.50;99.90;;;;;;5037660;28;20037;-61
2022/11/27 07:04:21;;;;;;;8.65;4.70;;;5.60;99.90;;;;;;5050004;28;20098;-62
2022/11/27 07:06:47;;;;;;;11.80;4.82;;;5.60;99.90;;;;;;5053435;28;20512;-61
2022/11/27 07:09:12;;;;;;;10.80;5.07;;;5.60;99.90;;;;;;5059020;28;20078;-61
2022/11/27 07:11:38;;;;;;;8.95;4.15;;;5.60;99.90;;;;;;5068293;28;20078;-61
2022/11/27 07:14:05;;;;;;;9.82;4.72;;;5.60;99.90;;;;;;5050384;28;20041;-61
2022/11/27 07:16:33;;;;;;;11.10;4.47;;;5.70;99.90;;;;;;5046668;28;20045;-62
2022/11/27 07:19:04;;;;;;;11.88;5.97;;;5.70;99.90;;;;;;5051692;28;20494;-62
2022/11/27 07:21:30;;;;;;;10.27;4.88;;;5.70;99.90;;;;;;5053574;28;20604;-62
2022/11/27 07:23:56;;;;;;;12.52;4.82;;;5.70;99.90;;;;;;5052602;28;20115;-61
2022/11/27 07:26:27;;;;;;;10.60;4.80;;;5.70;99.90;;;;;;5051259;28;20040;-62
2022/11/27 07:28:53;;;;;;;10.02;4.70;;;5.70;99.90;;;;;;5053291;28;20037;-62
2022/11/27 07:31:23;;;;;;;10.23;4.85;;;5.70;99.90;;;;;;5050273;28;20029;-61
2022/11/27 07:33:51;;;;;;;12.43;4.85;;;5.70;99.90;;;;;;5051655;28;20063;-62
2022/11/27 07:36:24;;;;;;;12.88;5.18;;;5.70;99.90;;;;;;5050049;28;20049;-62
2022/11/27 07:38:50;;;;;;;12.93;5.32;;;5.70;99.90;;;;;;5051782;28;20043;-61
2022/11/27 07:41:16;;;;;;;11.95;5.22;;;5.70;99.90;;;;;;5050776;28;20033;-61
2022/11/27 07:43:43;;;;;;;10.57;5.40;;;5.80;99.90;;;;;;5052756;28;20424;-61
2022/11/27 07:46:15;;;;;;;10.85;4.85;;;5.80;99.90;;;;;;5051424;28;20390;-62
2022/11/27 07:48:41;;;;;;;10.80;4.90;;;5.80;99.90;;;;;;5052919;28;20121;-62
2022/11/27 07:51:12;;;;;;;10.82;5.38;;;5.80;99.90;;;;;;5053692;28;20072;-62
2022/11/27 07:53:39;;;;;;;12.70;5.03;;;5.80;99.90;;;;;;5046671;28;20038;-61
2022/11/27 07:56:06;;;;;;;13.27;5.10;;;5.80;99.90;;;;;;5050483;28;20049;-62
2022/11/27 07:58:32;;;;;;;10.88;4.88;;;5.80;99.90;;;;;;5052882;28;20047;-61
2022/11/27 08:00:58;;;;;;;10.55;5.07;;;5.80;99.90;;;;;;5050798;28;20080;-61
2022/11/27 08:03:24;;;;;;;12.18;4.93;;;5.80;99.90;;;;;;5045070;28;20554;-61
2022/11/27 08:05:50;;;;;;;10.20;5.00;;;5.80;99.90;;;;;;5051544;28;20492;-62
2022/11/27 08:08:16;;;;;;;11.68;4.75;;;5.80;99.90;;;;;;5047016;28;20037;-61
2022/11/27 08:10:41;;;;;;;10.20;5.07;;;5.80;99.90;;;;;;5040819;28;20606;-61
2022/11/27 08:13:07;;;;;;;13.85;5.63;;;5.70;99.90;;;;;;5050131;28;20467;-62
2022/11/27 08:15:33;;;;;;;11.90;5.55;;;5.80;99.90;;;;;;5049080;28;20033;-61
2022/11/27 08:17:59;;;;;;;12.35;5.75;;;5.80;99.90;;;;;;5047746;28;20041;-62
2022/11/27 08:20:25;;;;;;;9.95;5.20;;;5.80;99.90;;;;;;5052992;28;20051;-62
2022/11/27 08:22:50;;;;;;;11.38;5.60;;;5.80;99.90;;;;;;5049033;28;20090;-62
2022/11/27 08:25:16;;;;;;;13.27;5.40;;;5.80;99.90;;;;;;5047956;28;20060;-61
2022/11/27 08:27:42;;;;;;;13.10;5.63;;;5.90;99.90;;;;;;5050647;28;20562;-61
2022/11/27 08:30:09;;;;;;;13.80;5.75;;;5.80;99.90;;;;;;5050877;28;20128;-61
2022/11/27 08:32:38;;;;;;;12.00;5.45;;;5.80;99.90;;;;;;5052904;28;20041;-62
2022/11/27 08:35:05;;;;;;;12.85;5.60;;;5.90;99.90;;;;;;5052943;28;20248;-62
2022/11/27 08:37:30;;;;;;;13.00;6.07;;;5.90;99.90;;;;;;5051900;28;20462;-62
2022/11/27 08:39:56;;;;;;;14.20;6.53;;;5.90;99.90;;;;;;5048824;28;20049;-62
2022/11/27 08:42:22;;;;;;;11.73;5.35;;;5.90;99.90;;;;;;5048050;28;20057;-62
2022/11/27 08:44:47;;;;;;;13.80;6.45;;;5.90;99.90;;;;;;5047350;28;20033;-62
2022/11/27 08:47:15;;;;;;;12.00;5.97;;;5.90;99.90;;;;;;5052013;28;20457;-61
2022/11/27 08:49:42;;;;;;;14.48;6.50;;;5.90;99.90;;;;;;5048703;28;20055;-62
2022/11/27 08:52:08;;;;;;;15.75;6.50;;;5.90;99.90;;;;;;5043012;28;20052;-62
2022/11/27 08:54:34;;;;;;;12.68;6.18;;;6.00;99.90;;;;;;5049909;28;20037;-62
2022/11/27 08:56:59;;;;;;;14.27;5.78;;;6.00;99.90;;;;;;5051979;28;20087;-62
2022/11/27 08:59:25;;;;;;;16.58;5.82;;;6.00;99.90;;;;;;5046273;28;20160;-62
2022/11/27 09:01:50;;;;;;;10.82;5.93;;;6.00;99.90;;;;;;5049125;28;20775;-62
2022/11/27 09:04:16;;;;;;;13.77;5.57;;;6.00;99.90;;;;;;5047113;28;20078;-62
2022/11/27 09:06:42;;;;;;;13.63;5.22;;;6.00;99.90;;;;;;5045960;28;20097;-61
2022/11/27 09:09:08;;;;;;;12.65;5.63;;;6.10;99.90;;;;;;5047465;28;20585;-62
2022/11/27 09:11:35;;;;;;;10.65;5.75;;;6.10;99.90;;;;;;5046830;28;20112;-61
2022/11/27 09:14:02;;;;;;;14.15;5.78;;;6.10;99.90;;;;;;5051306;28;20044;-61
2022/11/27 09:16:29;;;;;;;9.63;5.63;;;6.10;99.90;;;;;;5047846;28;20037;-61
2022/11/27 09:18:56;;;;;;;12.70;5.35;;;6.20;99.90;;;;;;5042135;28;20044;-61
2022/11/27 09:21:25;;;;;;;13.00;5.63;;;6.20;99.90;;;;;;5050472;28;20033;-61
2022/11/27 09:23:57;;;;;;;11.48;5.88;;;6.20;99.90;;;;;;5051717;28;20040;-61
2022/11/27 09:26:24;;;;;;;10.50;5.30;;;6.20;99.90;;;;;;5048889;28;20047;-61
2022/11/27 09:28:50;;;;;;;12.40;5.93;;;6.20;99.90;;;;;;5051196;28;20120;-61
2022/11/27 09:31:16;;;;;;;11.20;4.88;;;6.20;99.90;;;;;;5046095;28;20041;-61
2022/11/27 09:33:43;;;;;;;13.40;6.20;;;6.20;99.90;;;;;;5032858;28;20084;-61
2022/11/27 09:36:20;;;;;;;14.15;5.85;;;6.20;99.90;;;;;;5043666;28;20052;-62
2022/11/27 09:38:46;;;;;;;12.65;5.28;;;6.20;99.90;;;;;;5047386;28;20040;-61
2022/11/27 09:41:39;;;;;;;13.55;6.00;;;6.30;99.90;;;;;;5049678;28;20047;-61
2022/11/27 09:44:26;;;;;;;11.07;5.43;;;6.20;99.90;;;;;;5040688;28;20188;-61
2022/11/27 09:46:55;;;;;;;14.70;6.10;;;6.20;99.90;;;;;;5050792;28;20041;-61
2022/11/27 09:49:32;;;;;;;15.07;5.90;;;6.20;99.90;;;;;;5047449;28;20384;-61
2022/11/27 09:52:06;;;;;;;14.40;6.30;;;6.20;99.90;;;;;;5047152;28;20498;-61
2022/11/27 09:54:41;;;;;;;12.80;6.13;;;6.20;99.90;;;;;;5046124;28;20411;-61
2022/11/27 09:57:15;;;;;;;16.08;5.35;;;6.20;99.90;;;;;;5041897;28;20475;-61
2022/11/27 09:59:47;;;;;;;13.73;6.07;;;6.20;99.90;;;;;;5048196;28;20091;-60
2022/11/27 10:02:20;;;;;;;11.93;5.95;;;6.20;99.90;;;;;;5051527;28;20090;-61
2022/11/27 10:04:46;;;;;;;13.15;6.03;;;6.20;99.90;;;;;;5050821;28;20044;-61
2022/11/27 10:07:49;;;;;;;13.02;5.70;;;6.20;99.90;;;;;;5050464;28;20037;-61
2022/11/27 10:10:40;;;;;;;11.38;6.00;;;6.20;99.90;;;;;;5045001;28;20041;-61
2022/11/27 10:13:16;;;;;;;15.63;6.82;;;6.20;99.90;;;;;;5045305;28;20036;-61
2022/11/27 10:15:51;;;;;;;17.65;7.45;;;6.20;99.90;;;;;;5050737;28;20120;-61
2022/11/27 10:18:23;;;;;;;10.25;5.82;;;6.20;99.90;;;;;;5087917;22;20076;-62
2022/11/27 10:20:55;;;;;;;12.93;6.00;;;6.20;99.90;;;;;;5068059;28;20119;-62
2022/11/27 10:23:54;;;;;;;14.05;6.32;;;6.20;99.90;;;;;;5065720;28;20035;-63
2022/11/27 10:26:34;;;;;;;12.90;6.53;;;6.20;99.90;;;;;;5056516;28;20052;-62
2022/11/27 10:29:24;;;;;;;14.18;6.18;;;6.20;99.90;;;;;;5037396;28;20130;-62
2022/11/27 10:31:57;;;;;;;15.95;7.05;;;6.20;99.90;;;;;;5045791;28;20445;-63
2022/11/27 10:34:44;;;;;;;15.77;6.95;;;6.20;99.90;;;;;;5045393;28;20033;-63
2022/11/27 10:37:42;;;;;;;13.00;7.25;;;6.20;99.90;;;;;;5045536;28;20044;-63
2022/11/27 10:40:08;;;;;;;13.45;6.20;;;6.20;99.90;;;;;;5034565;28;20555;-62
2022/11/27 10:42:50;;;;;;;15.75;7.45;;;6.20;99.90;;;;;;5041583;28;20029;-63
2022/11/27 10:45:34;;;;;;;;;;;6.20;99.90;;;;;;5040726;28;20056;-62
2022/11/27 10:47:59;;;;;;;15.23;6.82;;;6.20;99.90;;;;;;5045611;28;19924;-62
2022/11/27 10:50:25;;;;;;;12.80;6.30;;;6.20;99.90;;;;;;5043943;28;20037;-62
2022/11/27 10:53:01;;;;;;;15.70;7.32;;;6.30;99.90;;;;;;5045585;28;20097;-63
2022/11/27 10:55:42;;;;;;;15.15;6.88;;;6.30;99.90;;;;;;5041728;28;20490;-62
2022/11/27 10:58:24;;;;;;;16.13;7.00;;;6.30;99.90;;;;;;5043371;28;21156;-62
2022/11/27 11:01:11;;;;;;;16.65;6.55;;;6.30;99.90;;;;;;5045229;28;20037;-62
2022/11/27 11:03:37;;;;;;;17.30;7.13;;;6.30;99.90;;;;;;5044689;28;20542;-62
2022/11/27 11:06:07;;;;;;;12.43;6.85;;;6.30;99.90;;;;;;5046765;28;20422;-63
2022/11/27 11:08:35;;;;;;;14.60;6.93;;;6.30;99.90;;;;;;5042851;28;20034;-63
2022/11/27 11:11:04;;;;;;;16.40;6.80;;;6.30;99.90;;;;;;5045740;28;20600;-62
2022/11/27 11:13:50;;;;;;;14.43;6.65;;;6.30;99.90;;;;;;5045166;28;20033;-62
2022/11/27 11:16:24;;;;;;;16.00;7.00;;;6.30;99.90;;;;;;5039851;28;20057;-62
2022/11/27 11:18:52;;;;;;;12.93;6.78;;;6.30;99.90;;;;;;5039752;28;20082;-61
2022/11/27 11:21:26;;;;;;;16.73;7.10;;;6.30;99.90;;;;;;5045582;28;20444;-62
2022/11/27 11:24:01;;;;;;;13.52;6.82;;;6.30;99.90;;;;;;5047425;28;20041;-62
2022/11/27 11:26:37;;;;;;;13.52;6.75;;;6.30;99.90;;;;;;5049627;28;20052;-62
2022/11/27 11:29:16;;;;;;;13.82;6.63;;;6.30;99.90;;;;;;5042570;28;20037;-62
2022/11/27 11:31:43;;;;;;;16.95;7.13;;;6.30;99.90;;;;;;5049599;28;20445;-63
2022/11/27 11:34:21;;;;;;;14.73;6.88;;;6.30;99.90;;;;;;5049654;28;20052;-63
2022/11/27 11:37:21;;;;;;;16.83;6.72;;;6.30;99.90;;;;;;5060280;28;20490;-63
2022/11/27 11:40:00;;;;;;;15.18;6.40;;;6.40;99.90;;;;;;5068135;28;20048;-63
2022/11/27 11:42:29;;;;;;;11.82;6.38;;;6.30;99.90;;;;;;5043093;28;20041;-62
2022/11/27 11:45:03;;;;;;;20.58;8.07;;;6.30;99.90;;;;;;5040891;28;20065;-62
2022/11/27 11:47:29;;;;;;;12.48;6.72;;;6.40;99.90;;;;;;5045886;28;20041;-63
2022/11/27 11:49:56;;;;;;;16.55;6.97;;;6.40;99.90;;;;;;5054336;28;20094;-62
2022/11/27 11:53:06;;;;;;;15.13;7.32;;;6.40;99.90;;;;;;5052219;28;20044;-63
2022/11/27 11:55:44;;;;;;;13.95;6.88;;;6.40;99.90;;;;;;5011684;28;20045;-62
2022/11/27 11:58:34;;;;;;;15.38;7.22;;;6.40;99.90;;;;;;5060654;28;20060;-62
2022/11/27 12:01:11;;;;;;;15.93;7.25;;;6.40;99.90;;;;;;5051730;28;20040;-62
2022/11/27 12:03:44;;;;;;;16.42;7.03;;;6.40;99.90;;;;;;5047551;28;20045;-63
2022/11/27 12:06:36;;;;;;;16.95;7.32;;;6.40;99.90;;;;;;5056478;28;20051;-62
2022/11/27 12:09:19;;;;;;;16.20;7.53;;;6.50;99.90;;;;;;5051815;28;20045;-62
2022/11/27 12:12:26;;;;;;;14.55;7.85;;;6.50;99.90;;;;;;5048334;28;20034;-62
2022/11/27 12:15:24;;;;;;;13.52;7.22;;;6.50;99.90;;;;;;5059729;28;20090;-62
2022/11/27 12:18:01;;;;;;;12.93;7.45;;;6.50;99.90;;;;;;5052063;28;20040;-62
2022/11/27 12:20:37;;;;;;;16.02;7.50;;;6.50;99.90;;;;;;5047056;28;20482;-62
2022/11/27 12:23:20;;;;;;;13.18;7.68;;;6.60;99.90;;;;;;5044695;28;20041;-62
2022/11/27 12:26:02;;;;;;;15.65;7.28;;;6.60;99.90;;;;;;5054890;28;20041;-62
2022/11/27 12:28:35;;;;;;;12.05;6.65;;;6.60;99.90;;;;;;5060349;28;20567;-62
2022/11/27 12:31:34;;;;;;;12.50;7.18;;;6.60;99.90;;;;;;5053430;28;20059;-62
2022/11/27 12:34:14;;;;;;;14.20;7.28;;;6.70;99.90;;;;;;5048974;28;20406;-62
2022/11/27 12:37:05;;;;;;;14.13;7.82;;;6.60;99.90;;;;;;5042944;28;20120;-62
2022/11/27 12:39:59;;;;;;;13.02;7.43;;;6.60;99.90;;;;;;5047257;28;20036;-62
2022/11/27 12:42:33;;;;;;;16.02;7.85;;;6.70;99.90;;;;;;5049799;28;20080;-63
2022/11/27 12:45:11;;;;;;;15.88;7.78;;;6.70;99.90;;;;;;5043078;28;20124;-63
2022/11/27 12:47:43;;;;;;;18.63;8.85;;;6.70;99.90;;;;;;5051038;28;20038;-62
2022/11/27 12:50:22;;;;;;;15.27;7.65;;;6.70;99.90;;;;;;5047268;28;20051;-62
2022/11/27 12:52:57;;;;;;;13.48;8.05;;;6.70;99.90;;;;;;5051094;28;20056;-62
2022/11/27 12:55:29;;;;;;;14.13;8.00;;;6.60;99.90;;;;;;5050434;28;20171;-62
2022/11/27 12:58:05;;;;;;;14.90;7.38;;;6.60;99.90;;;;;;5043253;28;20554;-62
2022/11/27 13:00:35;;;;;;;17.63;8.02;;;6.60;99.90;;;;;;5053060;28;20123;-62
2022/11/27 13:03:35;;;;;;;19.55;9.23;;;6.60;99.90;;;;;;5050865;28;20029;-62
2022/11/27 13:06:16;;;;;;;13.45;8.18;;;6.60;99.90;;;;;;5050169;28;20401;-63
2022/11/27 13:08:46;;;;;;;15.25;7.88;;;6.60;99.90;;;;;;5052637;28;20040;-63